createdAt,value
2022-11-25T00:01:35.081Z,3.07
2022-11-25T00:04:03.552Z,3.07
2022-11-25T00:06:36.066Z,2.70
2022-11-25T00:09:13.212Z,4.03
2022-11-25T00:11:43.913Z,3.27
2022-11-25T00:14:15.577Z,3.60
2022-11-25T00:16:47.945Z,3.10
2022-11-25T00:19:17.260Z,2.67
2022-11-25T00:21:45.422Z,3.70
2022-11-25T00:24:17.153Z,3.40
2022-11-25T00:26:45.665Z,2.87
2022-11-25T00:29:14.548Z,2.80
2022-11-25T00:31:42.956Z,3.07
2022-11-25T00:34:15.360Z,3.27
2022-11-25T00:36:43.544Z,2.70
2022-11-25T00:39:17.377Z,3.23
2022-11-25T00:42:06.778Z,2.90
2022-11-25T00:44:38.466Z,3.37
2022-11-25T00:47:21.864Z,3.83
2022-11-25T00:49:55.833Z,3.67
2022-11-25T00:52:28.617Z,3.47
2022-11-25T00:54:57.682Z,2.50
2022-11-25T00:57:25.652Z,2.73
2022-11-25T00:59:53.925Z,3.07
2022-11-25T01:02:23.434Z,2.47
2022-11-25T01:04:51.151Z,3.73
2022-11-25T01:07:19.435Z,3.13
2022-11-25T01:09:49.327Z,3.30
2022-11-25T01:12:17.494Z,2.80
2022-11-25T01:14:45.086Z,3.37
2022-11-25T01:17:15.004Z,2.90
2022-11-25T01:19:42.548Z,3.30
2022-11-25T01:22:10.757Z,2.10
2022-11-25T01:24:45.533Z,2.27
2022-11-25T01:27:13.357Z,3.57
2022-11-25T01:29:43.102Z,3.90
2022-11-25T01:32:10.692Z,3.50
2022-11-25T01:34:39.529Z,2.40
2022-11-25T01:37:07.181Z,2.80
2022-11-25T01:39:34.733Z,2.60
2022-11-25T01:42:02.970Z,2.70
2022-11-25T01:44:33.420Z,2.93
2022-11-25T01:47:24.524Z,2.63
2022-11-25T01:50:06.059Z,2.70
2022-11-25T01:52:50.589Z,3.47
2022-11-25T01:55:35.062Z,3.37
2022-11-25T01:58:26.278Z,2.90
2022-11-25T02:00:54.906Z,2.87
2022-11-25T02:03:42.076Z,2.80
2022-11-25T02:06:25.728Z,2.80
2022-11-25T02:09:06.835Z,3.93
2022-11-25T02:11:43.197Z,3.07
2022-11-25T02:14:26.158Z,2.80
2022-11-25T02:16:54.344Z,3.10
2022-11-25T02:19:42.999Z,3.00
2022-11-25T02:22:27.134Z,2.67
2022-11-25T02:25:32.799Z,3.00
2022-11-25T02:28:31.126Z,2.67
2022-11-25T02:31:00.170Z,2.80
2022-11-25T02:33:28.708Z,2.83
2022-11-25T02:36:21.351Z,3.10
2022-11-25T02:39:00.764Z,3.10
2022-11-25T02:41:49.974Z,3.03
2022-11-25T02:44:19.195Z,3.80
2022-11-25T02:46:47.605Z,3.13
2022-11-25T02:49:15.346Z,3.40
2022-11-25T02:51:46.684Z,3.63
2022-11-25T02:54:16.606Z,3.03
2022-11-25T02:56:45.938Z,3.10
2022-11-25T02:59:31.935Z,3.47
2022-11-25T03:02:02.279Z,2.63
2022-11-25T03:04:29.977Z,3.77
2022-11-25T03:06:57.523Z,3.40
2022-11-25T03:09:26.018Z,3.00
2022-11-25T03:12:13.198Z,2.83
2022-11-25T03:14:40.836Z,3.30
2022-11-25T03:17:08.378Z,2.93
2022-11-25T03:19:36.176Z,3.37
2022-11-25T03:22:05.084Z,2.63
2022-11-25T03:24:34.350Z,3.87
2022-11-25T03:27:02.211Z,2.77
2022-11-25T03:29:30.494Z,2.67
2022-11-25T03:31:58.883Z,3.80
2022-11-25T03:34:27.554Z,3.33
2022-11-25T03:36:55.376Z,3.23
2022-11-25T03:39:26.209Z,4.07
2022-11-25T03:41:54.003Z,2.40
2022-11-25T03:44:22.171Z,2.93
2022-11-25T03:46:49.774Z,3.10
2022-11-25T03:49:18.878Z,4.77
2022-11-25T03:51:47.059Z,3.60
2022-11-25T03:54:16.175Z,3.57
2022-11-25T03:57:10.712Z,3.57
2022-11-25T03:59:38.638Z,3.60
2022-11-25T04:02:07.128Z,3.83
2022-11-25T04:04:36.139Z,4.47
2022-11-25T04:07:04.099Z,3.70
2022-11-25T04:09:31.800Z,2.80
2022-11-25T04:12:19.662Z,3.53
2022-11-25T04:14:55.349Z,3.80
2022-11-25T04:17:23.985Z,3.90
2022-11-25T04:19:52.449Z,3.07
2022-11-25T04:22:20.118Z,4.23
2022-11-25T04:24:49.229Z,3.67
2022-11-25T04:27:22.407Z,3.93
2022-11-25T04:29:50.428Z,4.07
2022-11-25T04:32:20.434Z,4.33
2022-11-25T04:34:48.075Z,4.20
2022-11-25T04:37:16.557Z,3.87
2022-11-25T04:40:05.307Z,5.53
2022-11-25T04:42:38.047Z,3.50
2022-11-25T04:45:23.452Z,4.43
2022-11-25T04:47:53.464Z,5.57
2022-11-25T04:50:24.723Z,4.10
2022-11-25T04:53:06.032Z,4.17
2022-11-25T04:55:33.651Z,3.90
2022-11-25T04:58:06.613Z,3.70
2022-11-25T05:00:35.982Z,5.07
2022-11-25T05:03:06.946Z,4.10
2022-11-25T05:05:39.486Z,4.00
2022-11-25T05:08:07.443Z,3.10
2022-11-25T05:10:35.360Z,3.87
2022-11-25T05:13:03.837Z,3.90
2022-11-25T05:15:31.751Z,3.40
2022-11-25T05:18:00.124Z,3.43
2022-11-25T05:20:45.031Z,3.77
2022-11-25T05:23:14.631Z,3.93
2022-11-25T05:25:43.398Z,4.07
2022-11-25T05:28:32.609Z,4.33
2022-11-25T05:31:00.690Z,4.80
2022-11-25T05:33:28.680Z,4.03
2022-11-25T05:36:04.093Z,4.50
2022-11-25T05:38:38.147Z,5.50
2022-11-25T05:41:11.248Z,4.07
2022-11-25T05:43:41.302Z,4.70
2022-11-25T05:46:10.083Z,4.63
2022-11-25T05:48:44.173Z,5.20
2022-11-25T05:51:12.223Z,5.30
2022-11-25T05:53:40.864Z,5.27
2022-11-25T05:56:11.040Z,4.90
2022-11-25T05:59:01.872Z,4.30
2022-11-25T06:01:42.801Z,4.47
2022-11-25T06:04:11.795Z,4.67
2022-11-25T06:06:39.926Z,4.73
2022-11-25T06:09:08.572Z,3.80
2022-11-25T06:11:36.849Z,4.20
2022-11-25T06:14:04.526Z,4.83
2022-11-25T06:16:32.393Z,4.93
2022-11-25T06:19:15.327Z,4.80
2022-11-25T06:21:43.925Z,4.80
2022-11-25T06:24:11.534Z,4.93
2022-11-25T06:26:39.563Z,4.80
2022-11-25T06:29:07.395Z,6.00
2022-11-25T06:31:35.253Z,5.93
2022-11-25T06:34:21.225Z,7.37
2022-11-25T06:36:51.415Z,5.87
2022-11-25T06:39:19.186Z,5.57
2022-11-25T06:41:47.349Z,5.33
2022-11-25T06:44:15.531Z,5.17
2022-11-25T06:46:43.120Z,5.90
2022-11-25T06:49:10.812Z,5.10
2022-11-25T06:51:38.490Z,5.27
2022-11-25T06:54:07.301Z,4.33
2022-11-25T06:56:35.099Z,5.90
2022-11-25T06:59:04.089Z,5.27
2022-11-25T07:01:32.217Z,5.30
2022-11-25T07:04:06.049Z,5.20
2022-11-25T07:06:34.293Z,5.57
2022-11-25T07:09:03.429Z,5.17
2022-11-25T07:11:37.943Z,5.73
2022-11-25T07:14:14.542Z,6.77
2022-11-25T07:16:46.152Z,9.03
2022-11-25T07:19:18.388Z,6.20
2022-11-25T07:21:47.892Z,6.10
2022-11-25T07:24:24.499Z,5.73
2022-11-25T07:26:53.734Z,6.87
2022-11-25T07:29:51.562Z,5.87
2022-11-25T07:32:10.885Z,5.60
2022-11-25T07:34:39.168Z,5.87
2022-11-25T07:37:07.011Z,6.17
2022-11-25T07:39:35.206Z,4.93
2022-11-25T07:42:03.181Z,6.07
2022-11-25T07:44:31.366Z,6.40
2022-11-25T07:47:13.662Z,6.33
2022-11-25T07:49:41.655Z,6.40
2022-11-25T07:52:10.308Z,7.37
2022-11-25T07:54:39.727Z,8.67
2022-11-25T07:57:08.984Z,6.97
2022-11-25T07:59:41.719Z,6.90
2022-11-25T08:02:18.291Z,7.47
2022-11-25T08:04:46.216Z,6.23
2022-11-25T08:07:13.801Z,5.67
2022-11-25T08:09:41.445Z,8.53
2022-11-25T08:12:09.225Z,5.83
2022-11-25T08:14:37.366Z,6.30
2022-11-25T08:17:06.144Z,7.03
2022-11-25T08:19:34.057Z,6.00
2022-11-25T08:22:01.668Z,4.60
2022-11-25T08:24:29.251Z,5.50
2022-11-25T08:26:58.793Z,4.80
2022-11-25T08:29:26.329Z,6.50
2022-11-25T08:31:54.522Z,5.47
2022-11-25T08:34:25.437Z,5.57
2022-11-25T08:37:02.872Z,4.83
2022-11-25T08:42:18.761Z,4.57
2022-11-25T08:44:46.268Z,6.20
2022-11-25T08:47:13.903Z,4.60
2022-11-25T08:49:42.139Z,4.70
2022-11-25T08:52:11.365Z,5.67
2022-11-25T08:54:39.291Z,4.83
2022-11-25T08:57:07.279Z,4.90
2022-11-25T08:59:35.812Z,4.83
2022-11-25T09:02:04.277Z,5.40
2022-11-25T09:04:32.495Z,5.07
2022-11-25T09:07:01.861Z,4.97
2022-11-25T09:09:29.504Z,4.00
2022-11-25T09:11:57.191Z,6.57
2022-11-25T09:14:24.838Z,4.80
2022-11-25T09:16:52.564Z,3.77
2022-11-25T09:19:21.067Z,6.50
2022-11-25T09:21:48.813Z,4.70
2022-11-25T09:24:16.470Z,5.27
2022-11-25T09:26:45.189Z,5.33
2022-11-25T09:29:14.439Z,4.70
2022-11-25T09:31:42.131Z,5.37
2022-11-25T09:34:10.084Z,6.07
2022-11-25T09:36:38.039Z,5.40
2022-11-25T09:39:06.294Z,5.33
2022-11-25T09:42:33.071Z,5.50
2022-11-25T09:45:50.512Z,5.70
2022-11-25T09:48:58.797Z,6.47
2022-11-25T09:52:40.237Z,6.60
2022-11-25T09:55:24.211Z,4.83
2022-11-25T09:58:40.894Z,6.57
2022-11-25T10:01:23.887Z,5.00
2022-11-25T10:04:07.015Z,4.87
2022-11-25T10:06:57.069Z,5.77
2022-11-25T10:09:36.077Z,5.23
2022-11-25T10:12:40.869Z,4.23
2022-11-25T10:15:30.263Z,4.03
2022-11-25T10:18:40.839Z,5.90
2022-11-25T10:21:11.987Z,4.20
2022-11-25T10:23:41.102Z,4.80
2022-11-25T10:26:21.672Z,5.10
2022-11-25T10:29:28.440Z,5.10
2022-11-25T10:32:30.933Z,5.00
2022-11-25T10:35:20.408Z,5.40
2022-11-25T10:37:55.237Z,4.33
2022-11-25T10:40:23.294Z,4.63
2022-11-25T10:42:50.947Z,4.00
2022-11-25T10:45:32.146Z,4.83
2022-11-25T10:48:44.340Z,4.57
2022-11-25T10:51:48.550Z,4.50
2022-11-25T10:54:29.353Z,5.20
2022-11-25T10:57:18.881Z,5.23
2022-11-25T11:00:00.816Z,4.07
2022-11-25T11:02:41.820Z,5.57
2022-11-25T11:05:09.431Z,4.50
2022-11-25T11:07:46.862Z,4.83
2022-11-25T11:10:27.112Z,4.77
2022-11-25T11:13:18.021Z,4.60
2022-11-25T11:15:48.344Z,4.77
2022-11-25T11:18:41.124Z,4.60
2022-11-25T11:21:37.959Z,6.40
2022-11-25T11:24:29.833Z,4.70
2022-11-25T11:27:25.497Z,4.97
2022-11-25T11:30:27.126Z,4.13
2022-11-25T11:33:36.478Z,6.00
2022-11-25T11:36:23.974Z,4.73
2022-11-25T11:39:23.419Z,4.87
2022-11-25T11:42:32.833Z,5.30
2022-11-25T11:45:48.390Z,3.80
2022-11-25T11:49:13.394Z,4.60
2022-11-25T11:52:05.917Z,4.00
2022-11-25T11:55:14.968Z,5.73
2022-11-25T11:58:18.933Z,3.80
2022-11-25T12:01:11.233Z,4.80
2022-11-25T12:04:37.184Z,4.40
2022-11-25T12:07:43.435Z,4.87
2022-11-25T12:10:40.083Z,4.37
2022-11-25T12:14:00.698Z,4.60
2022-11-25T12:16:55.615Z,4.30
2022-11-25T12:19:57.008Z,4.00
2022-11-25T12:22:53.902Z,4.70
2022-11-25T12:25:39.310Z,4.83
2022-11-25T12:29:06.021Z,4.57
2022-11-25T12:31:52.412Z,5.47
2022-11-25T12:34:44.577Z,3.93
2022-11-25T12:37:38.647Z,4.93
2022-11-25T12:40:39.963Z,3.20
2022-11-25T12:43:43.608Z,4.17
2022-11-25T12:46:44.403Z,3.87
2022-11-25T12:49:42.069Z,4.40
2022-11-25T12:52:54.264Z,4.70
2022-11-25T12:55:28.952Z,4.43
2022-11-25T12:58:52.907Z,4.23
2022-11-25T13:02:45.611Z,4.07
2022-11-25T13:05:49.899Z,3.37
2022-11-25T13:08:56.360Z,3.63
2022-11-25T13:12:00.847Z,3.80
2022-11-25T13:15:33.609Z,3.50
2022-11-25T13:18:26.804Z,4.70
2022-11-25T13:21:08.395Z,3.40
2022-11-25T13:23:54.244Z,3.30
2022-11-25T13:26:34.267Z,3.17
2022-11-25T13:29:09.978Z,5.10
2022-11-25T13:32:25.846Z,3.40
2022-11-25T13:35:22.425Z,3.10
2022-11-25T13:37:51.260Z,4.20
2022-11-25T13:40:30.034Z,3.17
2022-11-25T13:43:00.569Z,3.20
2022-11-25T13:45:45.218Z,3.90
2022-11-25T13:48:35.035Z,3.63
2022-11-25T13:51:27.096Z,3.00
2022-11-25T13:54:03.010Z,3.27
2022-11-25T13:56:38.234Z,3.40
2022-11-25T13:59:35.712Z,3.20
2022-11-25T14:02:28.309Z,4.07
2022-11-25T14:05:34.567Z,4.20
2022-11-25T14:08:57.478Z,3.07
2022-11-25T14:12:23.382Z,3.10
2022-11-25T14:15:44.486Z,3.53
2022-11-25T14:23:29.594Z,3.40
2022-11-25T14:26:34.143Z,3.47
2022-11-25T14:29:36.835Z,2.83
2022-11-25T14:32:23.242Z,4.07
2022-11-25T14:35:14.954Z,3.50
2022-11-25T14:38:51.548Z,3.60
2022-11-25T14:41:47.157Z,3.90
2022-11-25T14:44:32.404Z,3.00
2022-11-25T14:47:05.951Z,3.40
2022-11-25T14:52:47.934Z,4.57
2022-11-25T14:55:32.032Z,3.60
2022-11-25T14:58:00.011Z,3.70
2022-11-25T15:00:27.741Z,4.10
2022-11-25T15:03:08.634Z,4.10
2022-11-25T15:05:41.096Z,4.27
2022-11-25T15:08:15.608Z,3.73
2022-11-25T15:11:04.831Z,4.40
2022-11-25T15:13:45.630Z,4.40
2022-11-25T15:16:21.834Z,3.53
2022-11-25T15:19:00.917Z,4.73
2022-11-25T15:21:53.771Z,4.67
2022-11-25T15:27:33.843Z,4.03
2022-11-25T15:30:01.598Z,3.93
2022-11-25T15:32:37.600Z,4.30
2022-11-25T15:35:08.954Z,3.63
2022-11-25T15:37:38.492Z,4.37
2022-11-25T15:40:43.259Z,3.80
2022-11-25T15:43:30.677Z,4.03
2022-11-25T15:46:05.933Z,4.27
2022-11-25T15:48:47.223Z,2.97
2022-11-25T15:51:43.990Z,3.70
2022-11-25T15:54:40.446Z,4.07
2022-11-25T15:57:34.949Z,3.67
2022-11-25T16:00:20.733Z,5.60
2022-11-25T16:02:55.397Z,4.13
2022-11-25T16:05:35.175Z,3.27
2022-11-25T16:08:24.853Z,3.90
2022-11-25T16:11:00.536Z,3.60
2022-11-25T16:13:33.551Z,4.27
2022-11-25T16:16:31.553Z,5.10
2022-11-25T16:19:16.807Z,4.20
2022-11-25T16:22:03.817Z,4.00
2022-11-25T16:24:47.576Z,3.03
2022-11-25T16:27:24.113Z,4.23
2022-11-25T16:30:05.851Z,4.20
2022-11-25T16:32:34.646Z,4.73
2022-11-25T16:35:23.848Z,4.03
2022-11-25T16:37:51.473Z,3.50
2022-11-25T16:40:19.871Z,4.73
2022-11-25T16:42:50.849Z,4.47
2022-11-25T16:45:28.784Z,4.20
2022-11-25T16:47:56.823Z,4.50
2022-11-25T16:50:24.885Z,3.97
2022-11-25T16:52:52.472Z,5.27
2022-11-25T16:55:27.752Z,3.50
2022-11-25T16:57:55.523Z,3.83
2022-11-25T17:00:23.399Z,4.53
2022-11-25T17:02:51.668Z,3.57
2022-11-25T17:05:25.579Z,4.00
2022-11-25T17:07:54.455Z,4.70
2022-11-25T17:10:22.875Z,4.37
2022-11-25T17:12:51.180Z,4.80
2022-11-25T17:15:36.807Z,4.33
2022-11-25T17:18:08.476Z,5.07
2022-11-25T17:20:36.096Z,4.03
2022-11-25T17:23:03.746Z,4.73
2022-11-25T17:25:37.076Z,4.20
2022-11-25T17:28:06.065Z,4.97
2022-11-25T17:30:33.879Z,4.60
2022-11-25T17:33:18.320Z,4.80
2022-11-25T17:35:46.787Z,5.23
2022-11-25T17:38:21.453Z,5.87
2022-11-25T17:40:50.695Z,5.37
2022-11-25T17:43:21.242Z,4.90
2022-11-25T17:45:48.936Z,4.63
2022-11-25T17:48:18.782Z,4.50
2022-11-25T17:50:47.516Z,5.07
2022-11-25T17:53:15.615Z,5.10
2022-11-25T17:55:43.255Z,5.13
2022-11-25T17:58:19.213Z,5.33
2022-11-25T18:00:46.879Z,5.57
2022-11-25T18:03:17.299Z,4.57
2022-11-25T18:05:46.158Z,5.43
2022-11-25T18:08:13.721Z,6.00
2022-11-25T18:10:41.492Z,5.67
2022-11-25T18:13:10.932Z,5.10
2022-11-25T18:15:40.279Z,5.50
2022-11-25T18:18:24.324Z,6.00
2022-11-25T18:20:56.219Z,4.90
2022-11-25T18:23:24.872Z,6.27
2022-11-25T18:25:56.502Z,6.73
2022-11-25T18:28:32.795Z,4.60
2022-11-25T18:31:06.382Z,5.50
2022-11-25T18:33:34.900Z,5.30
2022-11-25T18:36:02.622Z,5.30
2022-11-25T18:38:30.360Z,6.00
2022-11-25T18:40:58.107Z,6.33
2022-11-25T18:43:28.119Z,5.17
2022-11-25T18:45:57.436Z,6.80
2022-11-25T18:48:27.466Z,5.03
2022-11-25T18:50:57.507Z,5.97
2022-11-25T18:53:25.752Z,4.87
2022-11-25T18:55:53.913Z,6.10
2022-11-25T18:58:27.667Z,5.20
2022-11-25T19:01:11.245Z,5.50
2022-11-25T19:03:39.247Z,5.60
2022-11-25T19:06:14.688Z,5.37
2022-11-25T19:08:43.212Z,6.17
2022-11-25T19:11:23.268Z,6.77
2022-11-25T19:13:53.422Z,5.00
2022-11-25T19:16:29.959Z,6.03
2022-11-25T19:18:57.734Z,5.23
2022-11-25T19:21:25.324Z,5.70
2022-11-25T19:23:53.472Z,5.57
2022-11-25T19:26:38.953Z,6.30
2022-11-25T19:29:20.123Z,6.10
2022-11-25T19:31:54.451Z,6.50
2022-11-25T19:34:33.992Z,7.40
2022-11-25T19:37:02.265Z,6.27
2022-11-25T19:39:36.525Z,6.43
2022-11-25T19:42:04.502Z,6.10
2022-11-25T19:44:32.081Z,5.20
2022-11-25T19:47:14.902Z,6.67
2022-11-25T19:49:44.355Z,6.50
2022-11-25T19:52:35.812Z,6.53
2022-11-25T19:55:22.105Z,7.00
2022-11-25T19:57:53.095Z,6.27
2022-11-25T20:00:23.719Z,7.20
2022-11-25T20:02:56.371Z,7.03
2022-11-25T20:05:37.779Z,6.83
2022-11-25T20:08:05.984Z,7.10
2022-11-25T20:10:33.596Z,6.27
2022-11-25T20:13:01.191Z,7.70
2022-11-25T20:15:28.900Z,7.17
2022-11-25T20:18:01.458Z,7.53
2022-11-25T20:20:38.091Z,6.90
2022-11-25T20:23:43.606Z,10.10
2022-11-25T20:26:40.292Z,7.07
2022-11-25T20:29:28.851Z,7.00
2022-11-25T20:31:58.509Z,6.90
2022-11-25T20:34:28.376Z,7.90
2022-11-25T20:36:56.159Z,7.77
2022-11-25T20:39:23.812Z,7.63
2022-11-25T20:41:53.810Z,8.10
2022-11-25T20:44:22.203Z,7.50
2022-11-25T20:46:50.035Z,8.27
2022-11-25T20:49:29.532Z,8.60
2022-11-25T20:51:58.017Z,8.23
2022-11-25T20:54:25.813Z,8.63
2022-11-25T20:56:56.515Z,8.60
2022-11-25T20:59:26.977Z,8.90
2022-11-25T21:01:55.262Z,8.87
2022-11-25T21:04:23.465Z,7.83
2022-11-25T21:06:51.497Z,8.90
2022-11-25T21:09:35.989Z,10.67
2022-11-25T21:12:05.337Z,7.97
2022-11-25T21:14:33.294Z,8.47
2022-11-25T21:17:03.865Z,10.40
2022-11-25T21:19:40.648Z,11.13
2022-11-25T21:22:15.302Z,10.40
2022-11-25T21:24:48.905Z,10.70
2022-11-25T21:27:21.302Z,11.17
2022-11-25T21:29:51.079Z,10.93
2022-11-25T21:32:28.229Z,9.20
2022-11-25T21:34:58.011Z,9.50
2022-11-25T21:37:44.981Z,10.90
2022-11-25T21:40:49.706Z,10.40
2022-11-25T21:43:35.467Z,10.70
2022-11-25T21:46:22.808Z,9.40
2022-11-25T21:48:53.880Z,9.40
2022-11-25T21:51:24.481Z,10.17
2022-11-25T21:53:56.374Z,12.77
2022-11-25T21:56:36.262Z,11.00
2022-11-25T21:59:12.276Z,10.80
2022-11-25T22:01:40.038Z,9.47
2022-11-25T22:04:19.652Z,10.13
2022-11-25T22:06:48.708Z,11.00
2022-11-25T22:09:16.952Z,11.83
2022-11-25T22:11:50.760Z,12.43
2022-11-25T22:14:37.169Z,10.53
2022-11-25T22:17:17.179Z,12.10
2022-11-25T22:19:45.630Z,11.23
2022-11-25T22:22:16.686Z,12.20
2022-11-25T22:24:45.223Z,10.33
2022-11-25T22:27:36.518Z,11.30
2022-11-25T22:30:06.696Z,12.70
2022-11-25T22:32:34.453Z,14.63
2022-11-25T22:35:01.960Z,12.97
2022-11-25T22:37:31.816Z,13.43
2022-11-25T22:39:59.649Z,14.37
2022-11-25T22:42:32.603Z,13.10
2022-11-25T22:45:07.805Z,15.00
2022-11-25T22:47:45.329Z,12.37
2022-11-25T22:50:28.955Z,14.53
2022-11-25T22:52:59.384Z,13.43
2022-11-25T22:55:36.087Z,13.03
2022-11-25T22:58:04.843Z,13.30
2022-11-25T23:00:40.936Z,14.00
2022-11-25T23:03:34.315Z,13.43
2022-11-25T23:06:10.451Z,13.70
2022-11-25T23:08:40.450Z,13.10
2022-11-25T23:11:20.277Z,13.10
2022-11-25T23:13:50.624Z,13.40
2022-11-25T23:16:18.725Z,15.73
2022-11-25T23:18:47.717Z,14.20
2022-11-25T23:21:27.946Z,16.60
2022-11-25T23:23:56.819Z,14.73
2022-11-25T23:26:28.777Z,15.40
2022-11-25T23:28:59.893Z,14.17
2022-11-25T23:31:27.464Z,15.57
2022-11-25T23:33:55.207Z,14.33
2022-11-25T23:36:49.577Z,15.77
2022-11-25T23:39:26.586Z,14.43
2022-11-25T23:41:55.141Z,14.43
2022-11-25T23:44:31.923Z,14.83
2022-11-25T23:47:07.797Z,15.70
2022-11-25T23:49:45.761Z,16.00
2022-11-25T23:52:28.078Z,15.30
2022-11-25T23:54:56.429Z,15.57
2022-11-25T23:57:47.525Z,17.07
